Flight Track Log - Related Links

Times and Time Zones

All times are in EDT time to prevent confusion due to time zone crossing. See the N3781T flight status page for this flight to view local times or setup timezone preferences in your user account.

Time Position Orientation Groundspeed Altitude Reporting Facility
EDT Latitude Longitude Course Direction KTS MPH feet Rate Location/Type
Wed 05:20:39 PM 39.3667 -84.5500 303° West 97 112 1,300  Level Cincinnati TRACON
Wed 05:21:39 PM 39.3833 -84.5833 303° West 81 93 1,600 368 Climbing Cincinnati TRACON
Wed 05:22:33 PM 39.3833 -84.6000 270° West 81 93 2,000 474 Climbing Cincinnati TRACON
Wed 05:23:33 PM 39.3833 -84.6333 270° West 89 102 2,500 429 Climbing Cincinnati TRACON
Wed 05:24:39 PM 39.4000 -84.6667 303° West 87 100 2,900 353 Climbing Cincinnati TRACON
Wed 05:25:15 PM 39.4036 -84.6831 286° West 86 99 3,100 412 Climbing Indianapolis Center
Wed 05:26:21 PM 39.4192 -84.7053 312° West 82 94 3,600 495 Climbing Indianapolis Center
Wed 05:27:04 PM 39.4328 -84.7236 314° West 87 100 4,000 404 Climbing Indianapolis Center
Wed 05:28:05 PM 39.4511 -84.7461 317° Northwest 86 99 4,300 344 Climbing Indianapolis Center
Wed 05:29:06 PM 39.4678 -84.7683 314° West 87 100 4,700 393 Climbing Indianapolis Center
Wed 05:30:07 PM 39.4842 -84.7903 314° West 86 99 5,100 393 Climbing Indianapolis Center
Wed 05:31:08 PM 39.5008 -84.8125 314° West 86 99 5,500 365 Climbing Indianapolis Center
Wed 05:32:02 PM 39.5175 -84.8319 318° Northwest 86 99 5,800 282 Climbing Indianapolis Center
Wed 05:32:33 PM 39.5247 -84.8408 316° Northwest 85 98 5,900 197 Climbing Indianapolis Center
Wed 05:33:03 PM 39.5381 -84.8547 321° Northwest 88 101 6,000 97 Climbing Indianapolis Center
Wed 05:33:35 PM 39.5458 -84.8636 319° Northwest 93 107 6,000  Level Indianapolis Center
Wed 05:34:10 PM 39.5622 -84.8839 316° Northwest 112 129 6,000  Level Indianapolis Center
Wed 05:35:05 PM 39.5844 -84.9097 318° Northwest 117 135 6,000 -67 Level Indianapolis Center
Wed 05:35:39 PM 39.5975 -84.9236 321° Northwest 113 130 5,900  Descending Indianapolis Center
Wed 05:36:42 PM 39.6208 -84.9517 317° Northwest 115 132 6,000 48 Climbing Indianapolis Center
Wed 05:37:44 PM 39.6436 -84.9814 315° West 116 133 6,000  Level Indianapolis Center
Wed 05:38:46 PM 39.6614 -85.0150 304° West 115 132 6,000 -48 Level Indianapolis Center
Wed 05:39:48 PM 39.6842 -85.0472 313° West 118 136 5,900 -48 Descending Indianapolis Center
Wed 05:40:50 PM 39.7064 -85.0803 311° West 121 139 5,900 48 Level Indianapolis Center
Wed 05:41:52 PM 39.7325 -85.1189 311° West 120 138 6,000 48 Climbing Indianapolis Center
Wed 05:42:54 PM 39.7550 -85.1522 311° West 121 139 6,000 -48 Level Indianapolis Center
Wed 05:43:56 PM 39.7767 -85.1839 312° West 120 138 5,900 -48 Descending Indianapolis Center
Wed 05:44:58 PM 39.7958 -85.2183 306° West 120 138 5,900  Level Indianapolis Center
Wed 05:46:00 PM 39.8158 -85.2519 308° West 118 136 5,900  Level Indianapolis Center
Wed 05:47:02 PM 39.8394 -85.2911 308° West 117 135 5,900 48 Level Indianapolis Center
Wed 05:48:04 PM 39.8600 -85.3250 308° West 118 136 6,000 48 Climbing Indianapolis Center
Wed 05:49:06 PM 39.8772 -85.3603 302° West 117 135 6,000 -48 Level Indianapolis Center
Wed 05:50:08 PM 39.8933 -85.3961 300° West 117 135 5,900  Descending Indianapolis Center
Wed 05:51:10 PM 39.9100 -85.4314 302° West 116 133 6,000 48 Climbing Indianapolis Center
Wed 05:52:12 PM 39.9267 -85.4661 302° West 115 132 6,000  Level Indianapolis Center
Wed 05:53:14 PM 39.9531 -85.5022 314° West 114 131 6,000 -48 Level Indianapolis Center
Wed 05:54:16 PM 39.9825 -85.5206 334° Northwest 116 133 5,900 -48 Descending Indianapolis Center
Wed 05:55:18 PM 40.0108 -85.5425 329° Northwest 117 135 5,900  Level Indianapolis Center
Wed 05:56:20 PM 40.0375 -85.5658 326° Northwest 117 135 5,900 48 Level Indianapolis Center
Wed 05:57:23 PM 40.0622 -85.5931 320° Northwest 117 135 6,000  Climbing Indianapolis Center
Wed 05:58:25 PM 40.0836 -85.6369 303° West 118 136 5,900  Descending Indianapolis Center
Wed 05:59:27 PM 40.1017 -85.6725 304° West 119 137 6,000 48 Climbing Indianapolis Center
Wed 06:00:29 PM 40.1183 -85.7100 300° West 119 137 6,000  Level Indianapolis Center
Wed 06:01:31 PM 40.1367 -85.7461 304° West 119 137 6,000 -48 Level Indianapolis Center
Wed 06:02:33 PM 40.1542 -85.7831 302° West 120 138 5,900 -48 Descending Indianapolis Center
Wed 06:03:35 PM 40.1750 -85.8267 302° West 119 137 5,900  Level Indianapolis Center
Wed 06:04:37 PM 40.1911 -85.8631 300° West 118 136 5,900 52 Level Indianapolis Center
Wed 06:05:30 PM 40.2044 -85.8906 302° West 118 136 6,000  Climbing Chicago Center
Wed 06:06:32 PM 40.2211 -85.9261 302° West 117 135 5,900  Descending Chicago Center
Wed 06:07:34 PM 40.2411 -85.9703 301° West 118 136 6,000 48 Climbing Chicago Center
Wed 06:08:36 PM 40.2578 -86.0067 301° West 118 136 6,000  Level Chicago Center
Wed 06:09:37 PM 40.2731 -86.0442 298° West 117 135 6,000 -49 Level Chicago Center
Wed 06:10:38 PM 40.2906 -86.0858 299° West 120 138 5,900  Descending Chicago Center
Wed 06:11:43 PM 40.3114 -86.1142 314° West 118 136 6,000 47 Climbing Chicago Center
Wed 06:12:45 PM 40.3342 -86.1536 307° West 119 137 6,000  Level Chicago Center
Wed 06:13:52 PM 40.3581 -86.1933 308° West 118 136 6,000  Level Chicago Center
Wed 06:14:49 PM 40.3772 -86.2214 312° West 117 135 6,000  Level Chicago Center
Wed 06:15:51 PM 40.3978 -86.2556 308° West 118 136 6,000  Level Chicago Center
Wed 06:16:47 PM 40.4175 -86.2894 307° West 117 135 6,000  Level Chicago Center
Wed 06:17:55 PM 40.4372 -86.3219 309° West 115 132 6,000  Level Chicago Center
Wed 06:18:43 PM 40.4547 -86.3569 303° West 119 137 6,000  Level Chicago Center
Wed 06:19:37 PM 40.4725 -86.3881 307° West 121 139 6,000 -47 Level Chicago Center
Wed 06:20:50 PM 40.4983 -86.4306 309° West 126 145 5,900 -47 Descending Chicago Center
Wed 06:21:44 PM 40.5181 -86.4647 307° West 123 142 5,900  Level Chicago Center
Wed 06:22:51 PM 40.5394 -86.5042 306° West 121 139 5,900 49 Level Chicago Center
Wed 06:23:46 PM 40.5572 -86.5381 305° West 122 140 6,000 52 Climbing Chicago Center
Wed 06:24:46 PM 40.5767 -86.5747 305° West 123 142 6,000 -52 Level Chicago Center
Wed 06:25:41 PM 40.5964 -86.6089 307° West 123 142 5,900 -70 Descending Chicago Center
Wed 06:26:12 PM 40.6058 -86.6225 312° West 123 142 5,900  Level Chicago Center
Wed 06:26:42 PM 40.6181 -86.6431 308° West 123 142 5,900  Level Chicago Center
Wed 06:27:14 PM 40.6278 -86.6564 314° West 120 138 5,900  Level Chicago Center
Wed 06:28:16 PM 40.6458 -86.6953 301° West 123 142 5,900  Level Chicago Center
Wed 06:29:18 PM 40.6642 -86.7325 303° West 122 140 5,900 48 Level Chicago Center
Wed 06:30:21 PM 40.6869 -86.7722 307° West 116 133 6,000 48 Climbing Chicago Center
Wed 06:31:23 PM 40.7058 -86.8036 308° West 118 136 6,000  Level Chicago Center
Wed 06:32:25 PM 40.7308 -86.8444 309° West 120 138 6,000  Level Chicago Center
Wed 06:33:27 PM 40.7508 -86.8794 307° West 120 138 6,000  Level Chicago Center
Wed 06:34:29 PM 40.7697 -86.9175 303° West 121 139 6,000  Level Chicago Center
Wed 06:35:31 PM 40.7911 -86.9525 309° West 123 142 6,000  Level Chicago Center
Wed 06:36:33 PM 40.8117 -86.9883 307° West 123 142 6,000  Level Chicago Center
Wed 06:37:35 PM 40.8372 -87.0317 308° West 124 143 6,000  Level Chicago Center
Wed 06:38:37 PM 40.8578 -87.0683 307° West 122 140 6,000  Level Chicago Center
Wed 06:39:39 PM 40.8797 -87.1022 311° West 123 142 6,000 -48 Level Chicago Center
Wed 06:40:42 PM 40.9008 -87.1389 307° West 124 143 5,900 -48 Descending Chicago Center
Wed 06:41:44 PM 40.9219 -87.1753 308° West 125 144 5,900 -290 Level Chicago Center
Wed 06:42:46 PM 40.9478 -87.2253 304° West 135 155 5,300 -532 Descending Chicago Center
Wed 06:43:48 PM 40.9706 -87.2683 305° West 141 162 4,800 -532 Descending Chicago Center
Wed 06:44:50 PM 40.9950 -87.3069 310° West 140 161 4,200 -387 Descending Chicago Center
Wed 06:45:52 PM 41.0186 -87.3453 309° West 138 159 4,000 -97 Descending Chicago Center
Wed 06:46:54 PM 41.0381 -87.3792 307° West 129 148 4,000  Level Chicago Center
Wed 06:47:56 PM 41.0603 -87.4217 305° West 121 139 4,000  Level Chicago Center
Wed 06:48:58 PM 41.0792 -87.4542 308° West 116 133 4,000  Level Chicago Center
Wed 06:50:00 PM 41.1000 -87.4889 309° West 118 136 4,000  Level Chicago Center
Wed 06:51:03 PM 41.1200 -87.5236 307° West 119 137 4,000 -48 Level Chicago Center
Wed 06:52:05 PM 41.1386 -87.5589 305° West 118 136 3,900  Descending Chicago Center
Wed 06:53:07 PM 41.1608 -87.6022 304° West 119 137 4,000 48 Climbing Chicago Center
Wed 06:54:09 PM 41.1789 -87.6383 304° West 119 137 4,000 -48 Level Chicago Center
Wed 06:55:11 PM 41.1975 -87.6750 304° West 119 137 3,900  Descending Chicago Center
Wed 06:56:14 PM 41.2150 -87.7131 301° West 121 139 4,000 48 Climbing Chicago Center
Wed 06:57:15 PM 41.2331 -87.7503 303° West 120 138 4,000  Level Chicago Center
Wed 06:58:17 PM 41.2572 -87.7908 308° West 118 136 4,000 -48 Level Chicago Center
Wed 06:59:19 PM 41.2783 -87.8228 311° West 118 136 3,900  Descending Chicago Center
Wed 07:00:22 PM 41.2969 -87.8581 305° West 117 135 4,000 48 Climbing Chicago Center
Wed 07:01:24 PM 41.3156 -87.8933 305° West 118 136 4,000 -48 Level Chicago Center
Wed 07:02:26 PM 41.3333 -87.9275 305° West 115 132 3,900 -48 Descending Chicago Center
Wed 07:03:28 PM 41.3544 -87.9694 304° West 114 131 3,900  Level Chicago Center
Wed 07:04:30 PM 41.3853 -87.9864 338° Northwest 122 140 3,900  Level Chicago Center
Wed 07:05:32 PM 41.4097 -87.9978 341° North 120 138 3,900 -48 Level Chicago Center
Wed 07:06:34 PM 41.4475 -88.0156 341° North 121 139 3,800 -48 Descending Chicago Center
Wed 07:07:36 PM 41.4842 -88.0356 338° Northwest 122 140 3,800 65 Level Chicago Center
Wed 07:09:40 PM 41.5450 -88.0683 338° Northwest 120 138 4,000 32 Climbing Chicago Center
Wed 07:10:43 PM 41.5758 -88.0814 342° North 119 137 3,900 -48 Descending Chicago Center
Wed 07:11:45 PM 41.6164 -88.0969 344° North 122 140 3,900  Level Chicago Center
Wed 07:12:47 PM 41.6478 -88.1092 344° North 121 139 3,900 -194 Level Chicago Center
Wed 07:13:49 PM 41.6819 -88.1217 345° North 123 142 3,500 -387 Descending Chicago Center
Wed 07:14:51 PM 41.7147 -88.1406 337° Northwest 127 146 3,100 -339 Descending Chicago Center
Wed 07:15:53 PM 41.7461 -88.1631 332° Northwest 128 147 2,800 -48 Descending Chicago Center
Wed 07:16:55 PM 41.7817 -88.1850 335° Northwest 124 143 3,000 -97 Climbing Chicago Center
Wed 07:17:57 PM 41.8122 -88.2039 335° Northwest 121 139 2,600 -435 Descending Chicago Center
Wed 07:18:59 PM 41.8361 -88.2189 335° Northwest 111 128 2,100 -339 Descending Chicago Center
Wed 07:20:01 PM 41.8622 -88.2083 17° North 103 119 1,900 -144 Descending Chicago Center
Wed 07:21:04 PM 41.8881 -88.1989 15° North 101 116 1,800 -336 Descending Chicago Center
Wed 07:22:06 PM 41.9097 -88.2111 337° Northwest 96 110 1,200 -581 Descending Chicago Center
Wed 07:24:00 PM 41.9071 -88.2480 240° Southwest  Level Estimated

Login

Don't have an account? Register now (free) for customized features, flight alerts, and more!